createdAt,value
2018-04-10T00:01:20.306Z,67.70
2018-04-10T00:03:24.669Z,64.20
2018-04-10T00:05:28.240Z,63.20
2018-04-10T00:07:31.879Z,59.50
2018-04-10T00:09:35.452Z,67.27
2018-04-10T00:11:39.009Z,59.20
2018-04-10T00:13:44.002Z,58.50
2018-04-10T00:15:47.543Z,61.23
2018-04-10T00:17:51.937Z,55.63
2018-04-10T00:19:55.594Z,67.37
2018-04-10T00:21:59.185Z,57.70
2018-04-10T00:24:02.735Z,61.80
2018-04-10T00:26:07.089Z,65.23
2018-04-10T00:28:10.676Z,62.93
2018-04-10T00:30:14.248Z,60.87
2018-04-10T00:32:17.830Z,64.67
2018-04-10T00:34:21.437Z,57.77
2018-04-10T00:36:25.835Z,51.00
2018-04-10T00:38:29.453Z,48.10
2018-04-10T00:40:33.766Z,56.90
2018-04-10T00:42:37.292Z,60.03
2018-04-10T00:44:41.253Z,58.60
2018-04-10T00:46:44.793Z,61.40
2018-04-10T00:48:49.114Z,57.07
2018-04-10T00:50:53.819Z,54.83
2018-04-10T00:55:40.599Z,60.23
2018-04-10T00:57:44.147Z,55.67
2018-04-10T00:59:47.630Z,56.33
2018-04-10T01:01:51.874Z,56.13
2018-04-10T01:03:55.410Z,56.57
2018-04-10T01:05:58.891Z,54.80
2018-04-10T01:08:03.160Z,61.23
2018-04-10T01:10:06.723Z,52.60
2018-04-10T01:12:10.969Z,50.80
2018-04-10T01:14:15.194Z,51.80
2018-04-10T01:16:18.728Z,43.47
2018-04-10T01:18:22.270Z,56.10
2018-04-10T01:20:26.486Z,52.07
2018-04-10T01:22:30.042Z,53.17
2018-04-10T01:24:33.578Z,54.07
2018-04-10T01:26:37.797Z,46.63
2018-04-10T01:28:41.258Z,52.77
2018-04-10T01:30:44.782Z,52.00
2018-04-10T01:32:48.253Z,50.00
2018-04-10T01:34:52.509Z,54.27
2018-04-10T01:36:56.035Z,53.63
2018-04-10T01:39:00.291Z,53.33
2018-04-10T01:41:03.746Z,59.90
2018-04-10T01:43:07.628Z,50.83
2018-04-10T01:45:18.157Z,53.27
2018-04-10T01:47:23.437Z,54.87
2018-04-10T01:49:26.942Z,47.97
2018-04-10T01:51:30.415Z,50.73
2018-04-10T01:53:33.917Z,48.47
2018-04-10T01:55:37.424Z,50.27
2018-04-10T01:57:41.253Z,47.50
2018-04-10T01:59:44.708Z,47.10
2018-04-10T02:01:48.180Z,49.13
2018-04-10T02:03:51.690Z,54.17
2018-04-10T02:05:55.153Z,52.90
2018-04-10T02:07:58.689Z,49.40
2018-04-10T02:10:20.583Z,53.03
2018-04-10T02:12:30.898Z,50.53
2018-04-10T02:14:34.427Z,50.90
2018-04-10T02:16:37.951Z,52.07
2018-04-10T02:18:41.498Z,48.03
2018-04-10T02:20:44.945Z,56.60
2018-04-10T02:22:49.154Z,50.90
2018-04-10T02:24:52.685Z,51.90
2018-04-10T02:26:56.934Z,51.43
2018-04-10T02:29:00.424Z,51.47
2018-04-10T02:31:03.935Z,55.17
2018-04-10T02:33:07.403Z,51.10
2018-04-10T02:35:10.983Z,50.20
2018-04-10T02:37:14.794Z,47.43
2018-04-10T02:39:18.619Z,52.10
2018-04-10T02:41:22.337Z,52.37
2018-04-10T02:43:25.875Z,47.10
2018-04-10T02:45:30.099Z,54.70
2018-04-10T02:47:33.791Z,55.40
2018-04-10T02:49:38.041Z,54.33
2018-04-10T02:51:41.527Z,52.27
2018-04-10T02:53:45.001Z,49.73
2018-04-10T02:55:48.484Z,54.50
2018-04-10T02:57:51.980Z,51.70
2018-04-10T02:59:55.507Z,52.47
2018-04-10T03:01:58.997Z,47.30
2018-04-10T03:04:02.466Z,52.00
2018-04-10T03:06:06.002Z,52.40
2018-04-10T03:08:09.490Z,51.77
2018-04-10T03:10:12.950Z,51.67
2018-04-10T03:12:17.185Z,51.63
2018-04-10T03:14:20.692Z,56.47
2018-04-10T03:16:24.153Z,52.43
2018-04-10T03:18:27.654Z,50.73
2018-04-10T03:20:31.227Z,52.23
2018-04-10T03:22:35.454Z,53.03
2018-04-10T03:24:38.914Z,55.00
2018-04-10T03:26:42.394Z,53.47
2018-04-10T03:28:45.851Z,52.87
2018-04-10T03:30:49.349Z,48.07
2018-04-10T03:32:53.632Z,51.97
2018-04-10T03:34:57.103Z,52.00
2018-04-10T03:37:00.632Z,47.67
2018-04-10T03:39:04.181Z,51.13
2018-04-10T03:41:07.687Z,54.07
2018-04-10T03:43:11.186Z,52.73
2018-04-10T03:45:15.513Z,50.77
2018-04-10T03:47:18.971Z,50.30
2018-04-10T03:49:22.459Z,59.53
2018-04-10T03:51:25.990Z,47.90
2018-04-10T03:53:29.464Z,50.63
2018-04-10T03:55:32.930Z,47.93
2018-04-10T03:57:36.458Z,48.47
2018-04-10T03:59:39.910Z,44.83
2018-04-10T04:01:43.467Z,51.57
2018-04-10T04:03:46.937Z,51.17
2018-04-10T04:05:50.385Z,47.60
2018-04-10T04:07:53.872Z,46.53
2018-04-10T04:09:57.338Z,50.30
2018-04-10T04:12:01.586Z,51.33
2018-04-10T04:14:05.167Z,47.80
2018-04-10T04:16:21.242Z,48.73
2018-04-10T04:18:36.338Z,48.00
2018-04-10T04:20:52.422Z,53.50
2018-04-10T04:22:56.629Z,50.37
2018-04-10T04:25:00.101Z,51.00
2018-04-10T04:27:04.407Z,50.23
2018-04-10T04:29:08.629Z,53.33
2018-04-10T04:31:12.110Z,47.07
2018-04-10T04:33:16.365Z,49.50
2018-04-10T04:35:19.823Z,47.57
2018-04-10T04:37:23.291Z,47.63
2018-04-10T04:39:26.810Z,51.87
2018-04-10T04:41:30.362Z,48.77
2018-04-10T04:43:33.889Z,48.07
2018-04-10T04:45:37.445Z,52.87
2018-04-10T04:47:41.159Z,44.97
2018-04-10T04:49:44.650Z,44.53
2018-04-10T04:51:48.471Z,40.47
2018-04-10T04:53:52.088Z,39.90
2018-04-10T04:55:55.759Z,45.10
2018-04-10T04:57:59.615Z,38.83
2018-04-10T05:00:03.241Z,42.83
2018-04-10T05:02:06.883Z,46.77
2018-04-10T05:04:10.474Z,45.37
2018-04-10T05:06:14.783Z,41.80
2018-04-10T05:08:19.124Z,51.47
2018-04-10T05:10:22.744Z,44.90
2018-04-10T05:12:26.304Z,49.97
2018-04-10T05:14:29.866Z,47.77
2018-04-10T05:16:33.513Z,47.30
2018-04-10T05:18:37.084Z,43.30
2018-04-10T05:20:41.357Z,43.67
2018-04-10T05:22:44.937Z,44.53
2018-04-10T05:24:48.560Z,43.87
2018-04-10T05:26:52.118Z,45.37
2018-04-10T05:28:55.707Z,45.20
2018-04-10T05:30:59.282Z,45.93
2018-04-10T05:33:02.946Z,44.27
2018-04-10T05:35:06.565Z,46.13
2018-04-10T05:37:10.911Z,47.13
2018-04-10T05:39:14.501Z,45.40
2018-04-10T05:41:18.076Z,46.67
2018-04-10T05:43:22.481Z,40.77
2018-04-10T05:45:26.031Z,45.83
2018-04-10T05:47:29.588Z,49.00
2018-04-10T05:49:34.297Z,43.47
2018-04-10T05:51:37.845Z,48.07
2018-04-10T05:53:41.442Z,49.67
2018-04-10T05:55:45.040Z,44.70
2018-04-10T05:57:48.604Z,47.57
2018-04-10T05:59:52.926Z,48.77
2018-04-10T06:01:56.526Z,45.67
2018-04-10T06:04:00.886Z,45.47
2018-04-10T06:06:04.486Z,46.50
2018-04-10T06:08:08.120Z,48.37
2018-04-10T06:10:12.564Z,43.93
2018-04-10T06:12:16.133Z,55.47
2018-04-10T06:14:20.599Z,47.77
2018-04-10T06:16:24.168Z,47.47
2018-04-10T06:18:27.779Z,47.33
2018-04-10T06:20:31.426Z,45.70
2018-04-10T06:22:35.136Z,48.67
2018-04-10T06:24:39.447Z,45.80
2018-04-10T06:26:43.805Z,50.17
2018-04-10T06:28:47.384Z,47.90
2018-04-10T06:30:50.952Z,48.40
2018-04-10T06:32:54.482Z,49.57
2018-04-10T06:34:58.095Z,52.50
2018-04-10T06:37:01.691Z,48.37
2018-04-10T06:39:06.156Z,49.47
2018-04-10T06:41:10.850Z,45.10
2018-04-10T06:43:14.426Z,47.13
2018-04-10T06:45:17.994Z,52.50
2018-04-10T06:47:22.385Z,49.17
2018-04-10T06:49:25.967Z,46.63
2018-04-10T06:51:30.333Z,45.07
2018-04-10T06:53:33.928Z,48.60
2018-04-10T06:55:37.508Z,44.33
2018-04-10T06:57:41.033Z,43.60
2018-04-10T06:59:44.579Z,48.70
2018-04-10T07:01:48.176Z,42.70
2018-04-10T07:03:52.561Z,30.83
2018-04-10T07:05:56.089Z,43.83
2018-04-10T07:08:00.443Z,41.00
2018-04-10T07:10:04.475Z,39.67
2018-04-10T07:12:08.021Z,44.53
2018-04-10T07:14:12.452Z,45.10
2018-04-10T07:16:15.992Z,41.87
2018-04-10T07:18:19.557Z,37.10
2018-04-10T07:20:23.107Z,40.17
2018-04-10T07:22:27.436Z,42.43
2018-04-10T07:24:31.046Z,42.40
2018-04-10T07:26:34.599Z,40.10
2018-04-10T07:28:38.141Z,37.30
2018-04-10T07:30:41.753Z,37.53
2018-04-10T07:32:45.349Z,34.40
2018-04-10T07:34:48.917Z,39.83
2018-04-10T07:36:53.228Z,45.87
2018-04-10T07:38:56.986Z,41.30
2018-04-10T07:41:00.590Z,39.50
2018-04-10T07:43:04.942Z,43.57
2018-04-10T07:45:09.318Z,41.07
2018-04-10T07:47:12.878Z,38.37
2018-04-10T07:49:16.484Z,39.53
2018-04-10T07:51:20.059Z,39.30
2018-04-10T07:53:23.667Z,39.30
2018-04-10T07:55:28.103Z,40.07
2018-04-10T07:57:31.635Z,37.47
2018-04-10T07:59:35.957Z,38.50
2018-04-10T08:01:40.319Z,40.93
2018-04-10T08:03:43.876Z,35.47
2018-04-10T08:05:47.427Z,35.50
2018-04-10T08:07:52.154Z,39.47
2018-04-10T08:09:55.729Z,36.53
2018-04-10T08:11:59.305Z,38.50
2018-04-10T08:14:02.899Z,40.57
2018-04-10T08:16:06.490Z,36.50
2018-04-10T08:18:10.091Z,34.33
2018-04-10T08:20:13.686Z,38.63
2018-04-10T08:22:17.256Z,35.50
2018-04-10T08:24:20.902Z,34.50
2018-04-10T08:26:25.226Z,37.57
2018-04-10T08:28:28.816Z,39.50
2018-04-10T08:30:32.387Z,36.13
2018-04-10T08:32:36.002Z,30.17
2018-04-10T08:34:39.540Z,32.57
2018-04-10T08:36:43.151Z,34.17
2018-04-10T08:38:46.798Z,36.83
2018-04-10T08:40:50.331Z,36.70
2018-04-10T08:42:53.879Z,36.40
2018-04-10T08:44:57.514Z,37.17
2018-04-10T08:47:01.054Z,37.10
2018-04-10T08:49:05.372Z,36.07
2018-04-10T08:51:09.363Z,41.20
2018-04-10T08:53:12.889Z,31.87
2018-04-10T08:55:16.459Z,30.67
2018-04-10T08:57:20.064Z,29.70
2018-04-10T08:59:23.657Z,34.27
2018-04-10T09:01:27.252Z,27.83
2018-04-10T09:03:30.849Z,39.27
2018-04-10T09:05:34.480Z,25.87
2018-04-10T09:07:38.061Z,27.07
2018-04-10T09:09:41.644Z,24.90
2018-04-10T09:11:45.219Z,26.87
2018-04-10T09:13:49.541Z,23.87
2018-04-10T09:15:53.905Z,32.63
2018-04-10T09:17:57.455Z,25.47
2018-04-10T09:20:01.020Z,31.43
2018-04-10T09:22:04.630Z,25.27
2018-04-10T09:24:09.047Z,22.37
2018-04-10T09:26:13.404Z,35.43
2018-04-10T09:28:16.962Z,34.73
2018-04-10T09:30:21.236Z,20.57
2018-04-10T09:32:24.868Z,22.87
2018-04-10T09:34:29.213Z,23.73
2018-04-10T09:36:32.802Z,20.33
2018-04-10T09:38:36.801Z,32.70
2018-04-10T09:40:40.371Z,33.10
2018-04-10T09:42:44.026Z,25.83
2018-04-10T09:44:47.650Z,22.77
2018-04-10T09:46:51.156Z,20.93
2018-04-10T09:48:54.700Z,33.63
2018-04-10T09:50:58.265Z,25.50
2018-04-10T09:53:02.570Z,30.50
2018-04-10T09:55:06.954Z,33.93
2018-04-10T09:57:10.478Z,26.90
2018-04-10T09:59:14.020Z,23.83
2018-04-10T10:01:17.612Z,24.17
2018-04-10T10:03:21.210Z,32.30
2018-04-10T10:05:24.805Z,37.20
2018-04-10T10:07:28.372Z,32.73
2018-04-10T10:09:32.678Z,19.93
2018-04-10T10:11:36.268Z,21.87
2018-04-10T10:13:39.855Z,26.70
2018-04-10T10:15:43.411Z,27.23
2018-04-10T10:17:46.963Z,23.37
2018-04-10T10:19:50.622Z,21.40
2018-04-10T10:21:54.166Z,23.47
2018-04-10T10:23:57.797Z,35.20
2018-04-10T10:26:01.385Z,25.23
2018-04-10T10:28:04.943Z,21.03
2018-04-10T10:30:09.343Z,20.93
2018-04-10T10:32:12.918Z,24.43
2018-04-10T10:34:16.465Z,23.13
2018-04-10T10:36:20.806Z,31.57
2018-04-10T10:38:24.362Z,34.90
2018-04-10T10:40:28.687Z,26.77
2018-04-10T10:42:33.501Z,34.03
2018-04-10T10:44:37.011Z,26.20
2018-04-10T10:46:41.303Z,38.00
2018-04-10T10:48:45.647Z,27.37
2018-04-10T10:50:49.281Z,34.93
2018-04-10T10:52:52.871Z,24.40
2018-04-10T10:54:56.459Z,22.97
2018-04-10T10:57:00.029Z,24.37
2018-04-10T10:59:04.407Z,23.83
2018-04-10T11:01:08.322Z,24.03
2018-04-10T11:03:11.961Z,25.37
2018-04-10T11:05:15.572Z,25.47
2018-04-10T11:07:19.149Z,23.57
2018-04-10T11:09:22.800Z,24.60
2018-04-10T11:11:26.516Z,26.13
2018-04-10T11:13:30.047Z,37.57
2018-04-10T11:15:33.666Z,29.13
2018-04-10T11:17:37.223Z,24.87
2018-04-10T11:19:41.575Z,25.10
2018-04-10T11:21:45.186Z,25.00
2018-04-10T11:23:48.731Z,28.53
2018-04-10T11:25:52.351Z,26.73
2018-04-10T11:27:55.944Z,28.17
2018-04-10T11:29:59.525Z,24.00
2018-04-10T11:32:03.900Z,25.83
2018-04-10T11:34:07.493Z,28.60
2018-04-10T11:36:11.004Z,29.10
2018-04-10T11:38:14.598Z,29.93
2018-04-10T11:40:18.195Z,25.30
2018-04-10T11:42:21.775Z,29.93
2018-04-10T11:44:25.401Z,37.23
2018-04-10T11:46:29.741Z,34.20
2018-04-10T11:48:33.283Z,38.67
2018-04-10T11:50:36.893Z,34.93
2018-04-10T11:52:40.540Z,34.70
2018-04-10T11:54:44.099Z,24.37
2018-04-10T11:56:48.792Z,26.53
2018-04-10T11:58:52.340Z,32.27
2018-04-10T12:00:55.873Z,34.70
2018-04-10T12:02:59.497Z,32.70
2018-04-10T12:05:03.070Z,39.73
2018-04-10T12:07:06.613Z,36.73
2018-04-10T12:09:11.002Z,30.07
2018-04-10T12:11:14.553Z,24.30
2018-04-10T12:13:18.138Z,26.07
2018-04-10T12:15:21.739Z,30.03
2018-04-10T12:17:25.340Z,23.57
2018-04-10T12:19:28.895Z,26.77
2018-04-10T12:21:33.259Z,23.00
2018-04-10T12:23:37.640Z,27.87
2018-04-10T12:25:42.017Z,25.37
2018-04-10T12:27:45.574Z,28.17
2018-04-10T12:29:49.150Z,25.93
2018-04-10T12:31:52.778Z,33.87
2018-04-10T12:33:56.361Z,30.93
2018-04-10T12:35:59.888Z,31.47
2018-04-10T12:38:04.277Z,27.37
2018-04-10T12:40:07.824Z,40.87
2018-04-10T12:42:12.238Z,25.10
2018-04-10T12:44:15.785Z,30.03
2018-04-10T12:46:19.330Z,33.03
2018-04-10T12:48:23.718Z,36.50
2018-04-10T12:50:27.383Z,29.80
2018-04-10T12:52:31.029Z,32.00
2018-04-10T12:54:34.617Z,25.70
2018-04-10T12:56:38.200Z,32.63
2018-04-10T12:58:41.738Z,23.13
2018-04-10T13:00:46.442Z,24.50
2018-04-10T13:02:49.996Z,26.13
2018-04-10T13:04:53.568Z,26.40
2018-04-10T13:06:57.887Z,25.77
2018-04-10T13:09:01.526Z,24.30
2018-04-10T13:11:05.972Z,25.43
2018-04-10T13:13:09.563Z,23.13
2018-04-10T13:15:13.114Z,26.73
2018-04-10T13:17:16.784Z,25.83
2018-04-10T13:19:21.130Z,35.90
2018-04-10T13:21:24.676Z,27.77
2018-04-10T13:23:28.227Z,24.57
2018-04-10T13:25:31.755Z,23.50
2018-04-10T13:27:35.395Z,28.10
2018-04-10T13:29:38.949Z,26.47
2018-04-10T13:31:42.530Z,28.20
2018-04-10T13:33:46.140Z,25.27
2018-04-10T13:35:49.878Z,24.70
2018-04-10T13:37:53.439Z,28.07
2018-04-10T13:39:57.464Z,27.83
2018-04-10T13:42:01.800Z,25.67
2018-04-10T13:44:05.364Z,30.40
2018-04-10T13:46:08.953Z,27.13
2018-04-10T13:48:12.494Z,29.00
2018-04-10T13:50:16.063Z,26.97
2018-04-10T13:52:20.441Z,27.93
2018-04-10T13:54:23.992Z,28.17
2018-04-10T13:56:27.587Z,27.93
2018-04-10T13:58:31.972Z,36.87
2018-04-10T14:00:35.518Z,30.50
2018-04-10T14:02:39.136Z,25.27
2018-04-10T14:04:42.779Z,27.07
2018-04-10T14:06:47.126Z,33.43
2018-04-10T14:08:50.662Z,28.80
2018-04-10T14:10:54.264Z,28.40
2018-04-10T14:12:57.855Z,29.17
2018-04-10T14:15:01.444Z,32.83
2018-04-10T14:17:06.651Z,26.23
2018-04-10T14:19:10.209Z,29.87
2018-04-10T14:21:14.557Z,29.60
2018-04-10T14:23:18.488Z,31.77
2018-04-10T14:25:22.094Z,29.30
2018-04-10T14:27:25.699Z,30.43
2018-04-10T14:29:29.278Z,31.97
2018-04-10T14:31:32.910Z,26.73
2018-04-10T14:33:36.591Z,29.83
2018-04-10T14:35:40.164Z,27.90
2018-04-10T14:37:43.721Z,30.50
2018-04-10T14:39:48.268Z,27.30
2018-04-10T14:41:51.840Z,27.13
2018-04-10T14:43:56.189Z,28.80
2018-04-10T14:45:59.775Z,30.17
2018-04-10T14:48:03.333Z,28.33
2018-04-10T14:50:07.692Z,31.90
2018-04-10T14:52:11.316Z,31.37
2018-04-10T14:54:14.920Z,28.00
2018-04-10T14:56:18.491Z,30.50
2018-04-10T14:58:22.126Z,26.90
2018-04-10T15:00:26.514Z,28.30
2018-04-10T15:02:30.912Z,27.00
2018-04-10T15:04:34.548Z,33.63
2018-04-10T15:06:38.915Z,26.93
2018-04-10T15:08:42.486Z,30.33
2018-04-10T15:10:46.858Z,28.70
2018-04-10T15:12:50.415Z,30.60
2018-04-10T15:14:54.020Z,34.47
2018-04-10T15:16:57.565Z,31.03
2018-04-10T15:19:01.132Z,38.63
2018-04-10T15:21:04.720Z,34.03
2018-04-10T15:23:08.302Z,28.73
2018-04-10T15:25:11.863Z,29.63
2018-04-10T15:27:16.238Z,31.10
2018-04-10T15:29:19.856Z,29.80
2018-04-10T15:31:23.424Z,29.87
2018-04-10T15:33:27.008Z,29.40
2018-04-10T15:35:30.554Z,32.97
2018-04-10T15:37:34.082Z,30.13
2018-04-10T15:39:37.656Z,31.10
2018-04-10T15:41:41.253Z,26.23
2018-04-10T15:43:45.701Z,35.20
2018-04-10T15:45:49.218Z,31.97
2018-04-10T15:47:52.821Z,27.57
2018-04-10T15:49:56.460Z,28.10
2018-04-10T15:52:00.018Z,29.23
2018-04-10T15:54:03.607Z,25.20
2018-04-10T15:56:07.228Z,29.70
2018-04-10T15:58:11.567Z,28.17
2018-04-10T16:00:15.568Z,32.03
2018-04-10T16:02:19.187Z,31.63
2018-04-10T16:04:22.747Z,27.03
2018-04-10T16:06:26.379Z,35.30
2018-04-10T16:08:29.955Z,33.03
2018-04-10T16:10:34.290Z,34.00
2018-04-10T16:12:38.605Z,26.67
2018-04-10T16:14:42.250Z,31.97
2018-04-10T16:16:45.797Z,27.90
2018-04-10T16:18:49.332Z,32.13
2018-04-10T16:20:52.918Z,26.80
2018-04-10T16:22:56.839Z,23.53
2018-04-10T16:25:00.374Z,30.27
2018-04-10T16:27:03.944Z,26.23
2018-04-10T16:29:07.527Z,31.13
2018-04-10T16:31:11.131Z,27.90
2018-04-10T16:33:14.730Z,27.30
2018-04-10T16:35:18.284Z,24.83
2018-04-10T16:37:22.269Z,25.63
2018-04-10T16:39:25.826Z,28.20
2018-04-10T16:41:29.421Z,31.47
2018-04-10T16:43:32.979Z,27.30
2018-04-10T16:45:36.585Z,26.27
2018-04-10T16:47:40.223Z,30.23
2018-04-10T16:49:43.812Z,31.33
2018-04-10T16:51:47.398Z,28.70
2018-04-10T16:53:50.950Z,30.73
2018-04-10T16:55:54.545Z,26.37
2018-04-10T16:57:58.556Z,23.30
2018-04-10T17:00:02.111Z,24.70
2018-04-10T17:02:05.735Z,29.00
2018-04-10T17:04:09.336Z,26.80
2018-04-10T17:06:12.938Z,23.30
2018-04-10T17:08:16.532Z,23.13
2018-04-10T17:10:20.115Z,27.07
2018-04-10T17:12:23.689Z,21.83
2018-04-10T17:14:27.733Z,29.17
2018-04-10T17:16:31.332Z,24.63
2018-04-10T17:18:34.879Z,24.83
2018-04-10T17:20:38.564Z,31.73
2018-04-10T17:22:42.159Z,29.60
2018-04-10T17:24:45.728Z,29.73
2018-04-10T17:26:50.228Z,29.00
2018-04-10T17:28:54.240Z,21.37
2018-04-10T17:30:57.863Z,27.10
2018-04-10T17:33:01.483Z,25.90
2018-04-10T17:35:06.540Z,26.85
2018-04-10T17:37:10.855Z,23.80
2018-04-10T17:39:14.543Z,23.30
2018-04-10T17:41:18.100Z,28.20
2018-04-10T17:43:21.691Z,26.13
2018-04-10T17:45:26.278Z,27.73
2018-04-10T17:47:29.895Z,21.80
2018-04-10T17:49:33.453Z,21.87
2018-04-10T17:51:37.815Z,27.47
2018-04-10T17:53:41.487Z,28.43
2018-04-10T17:55:45.810Z,25.50
2018-04-10T17:57:49.360Z,24.63
2018-04-10T17:59:52.983Z,25.47
2018-04-10T18:01:56.569Z,29.93
2018-04-10T18:04:00.967Z,23.77
2018-04-10T18:06:04.499Z,27.03
2018-04-10T18:08:08.050Z,26.37
2018-04-10T18:10:12.504Z,22.93
2018-04-10T18:12:16.865Z,22.23
2018-04-10T18:14:20.490Z,24.90
2018-04-10T18:16:24.108Z,23.37
2018-04-10T18:18:28.428Z,28.13
2018-04-10T18:20:32.120Z,26.20
2018-04-10T18:22:36.481Z,23.07
2018-04-10T18:24:40.043Z,22.37
2018-04-10T18:26:44.393Z,25.87
2018-04-10T18:28:49.712Z,25.73
2018-04-10T18:30:53.655Z,22.03
2018-04-10T18:32:57.460Z,28.67
2018-04-10T18:35:01.161Z,25.20
2018-04-10T18:37:05.545Z,20.87
2018-04-10T18:39:09.094Z,27.97
2018-04-10T18:41:13.874Z,26.80
2018-04-10T18:43:17.442Z,27.77
2018-04-10T18:45:21.036Z,28.50
2018-04-10T18:47:24.649Z,25.53
2018-04-10T18:49:28.217Z,26.87
2018-04-10T18:51:32.600Z,23.70
2018-04-10T18:53:36.186Z,25.50
2018-04-10T18:55:40.560Z,27.43
2018-04-10T18:57:44.164Z,26.97
2018-04-10T18:59:47.748Z,28.93
2018-04-10T19:01:51.323Z,29.07
2018-04-10T19:03:55.652Z,28.03
2018-04-10T19:05:59.330Z,25.53
2018-04-10T19:08:03.674Z,23.47
2018-04-10T19:10:07.215Z,25.37
2018-04-10T19:12:10.818Z,23.83
2018-04-10T19:14:14.419Z,25.60
2018-04-10T19:16:18.015Z,26.87
2018-04-10T19:18:21.583Z,23.33
2018-04-10T19:20:25.191Z,26.67
2018-04-10T19:22:28.735Z,22.50
2018-04-10T19:24:33.063Z,23.63
2018-04-10T19:26:37.063Z,22.63
2018-04-10T19:28:40.638Z,25.83
2018-04-10T19:30:44.215Z,23.63
2018-04-10T19:32:47.819Z,27.20
2018-04-10T19:34:52.173Z,23.67
2018-04-10T19:36:55.735Z,27.17
2018-04-10T19:39:00.160Z,25.90
2018-04-10T19:41:04.485Z,24.13
2018-04-10T19:43:08.802Z,24.43
2018-04-10T19:45:12.460Z,24.90
2018-04-10T19:47:16.822Z,24.27
2018-04-10T19:49:20.467Z,18.30
2018-04-10T19:51:24.786Z,27.07
2018-04-10T19:53:28.382Z,20.93
2018-04-10T19:55:32.345Z,24.00
2018-04-10T19:57:35.899Z,25.90
2018-04-10T19:59:39.553Z,22.83
2018-04-10T20:01:48.468Z,24.40
2018-04-10T20:03:58.284Z,22.80
2018-04-10T20:06:01.880Z,21.87
2018-04-10T20:08:05.571Z,25.77
2018-04-10T20:10:09.961Z,25.33
2018-04-10T20:12:13.606Z,27.63
2018-04-10T20:14:17.184Z,24.27
2018-04-10T20:16:21.594Z,21.07
2018-04-10T20:18:25.983Z,23.70
2018-04-10T20:20:30.136Z,20.83
2018-04-10T20:22:33.733Z,24.00
2018-04-10T20:24:37.332Z,30.43
2018-04-10T20:26:40.844Z,23.50
2018-04-10T20:28:44.415Z,25.50
2018-04-10T20:30:47.998Z,27.50
2018-04-10T20:32:52.332Z,21.67
2018-04-10T20:34:55.940Z,22.83
2018-04-10T20:37:00.285Z,20.33
2018-04-10T20:39:04.735Z,23.23
2018-04-10T20:41:09.314Z,20.67
2018-04-10T20:43:12.969Z,24.57
2018-04-10T20:45:18.656Z,22.97
2018-04-10T20:47:22.278Z,23.33
2018-04-10T20:49:25.882Z,23.00
2018-04-10T20:51:29.483Z,19.93
2018-04-10T20:53:33.083Z,22.13
2018-04-10T20:55:36.686Z,23.30
2018-04-10T20:57:40.252Z,23.60
2018-04-10T20:59:44.037Z,21.63
2018-04-10T21:01:47.610Z,20.80
2018-04-10T21:03:51.206Z,21.63
2018-04-10T21:05:54.941Z,21.67
2018-04-10T21:08:00.531Z,23.47
2018-04-10T21:10:06.404Z,20.90
2018-04-10T21:12:13.958Z,25.73
2018-04-10T21:14:17.509Z,19.50
2018-04-10T21:16:21.531Z,26.00
2018-04-10T21:18:25.066Z,19.43
2018-04-10T21:20:30.159Z,24.00
2018-04-10T21:22:34.524Z,22.97
2018-04-10T21:24:40.143Z,23.93
2018-04-10T21:26:44.779Z,25.87
2018-04-10T21:28:48.334Z,20.03
2018-04-10T21:30:51.874Z,26.23
2018-04-10T21:32:55.506Z,23.87
2018-04-10T21:34:59.087Z,27.47
2018-04-10T21:37:02.687Z,32.73
2018-04-10T21:39:06.342Z,18.67
2018-04-10T21:41:09.930Z,24.00
2018-04-10T21:43:18.957Z,21.60
2018-04-10T21:45:23.309Z,21.57
2018-04-10T21:47:26.847Z,16.37
2018-04-10T21:49:30.465Z,20.23
2018-04-10T21:51:33.999Z,21.60
2018-04-10T21:53:37.506Z,25.83
2018-04-10T21:55:41.114Z,27.47
2018-04-10T21:57:44.680Z,26.17
2018-04-10T21:59:48.206Z,28.03
2018-04-10T22:01:52.483Z,25.70
2018-04-10T22:03:56.041Z,25.30
2018-04-10T22:05:59.590Z,27.40
2018-04-10T22:08:03.561Z,27.50
2018-04-10T22:10:07.905Z,26.43
2018-04-10T22:12:11.437Z,26.53
2018-04-10T22:14:15.405Z,23.47
2018-04-10T22:16:19.710Z,28.10
2018-04-10T22:18:23.218Z,29.97
2018-04-10T22:20:26.857Z,29.37
2018-04-10T22:22:30.389Z,26.33
2018-04-10T22:24:34.730Z,26.57
2018-04-10T22:26:38.386Z,27.03
2018-04-10T22:28:42.715Z,31.93
2018-04-10T22:30:46.267Z,25.93
2018-04-10T22:32:49.815Z,26.63
2018-04-10T22:34:53.379Z,25.00
2018-04-10T22:36:56.944Z,28.67
2018-04-10T22:39:00.559Z,28.17
2018-04-10T22:41:04.579Z,32.43
2018-04-10T22:43:08.089Z,30.27
2018-04-10T22:45:11.684Z,25.77
2018-04-10T22:47:15.479Z,26.37
2018-04-10T22:49:19.096Z,29.33
2018-04-10T22:51:22.644Z,28.20
2018-04-10T22:53:26.189Z,25.77
2018-04-10T22:55:29.847Z,29.03
2018-04-10T22:57:34.191Z,28.80
2018-04-10T22:59:38.093Z,32.03
2018-04-10T23:01:41.753Z,23.07
2018-04-10T23:03:46.097Z,23.27
2018-04-10T23:05:49.695Z,29.47
2018-04-10T23:07:53.275Z,29.50
2018-04-10T23:09:57.632Z,27.10
2018-04-10T23:12:01.238Z,26.23
2018-04-10T23:14:04.823Z,31.60
2018-04-10T23:16:08.507Z,26.20
2018-04-10T23:18:12.059Z,33.27
2018-04-10T23:20:15.640Z,29.73
2018-04-10T23:22:19.236Z,27.97
2018-04-10T23:24:23.571Z,27.90
2018-04-10T23:26:27.206Z,29.03
2018-04-10T23:28:30.775Z,27.43
2018-04-10T23:30:34.320Z,29.67
2018-04-10T23:32:37.898Z,25.77
2018-04-10T23:34:41.410Z,33.07
2018-04-10T23:36:45.005Z,29.43
2018-04-10T23:38:48.969Z,34.13
2018-04-10T23:40:52.527Z,29.63
2018-04-10T23:42:56.117Z,30.97
2018-04-10T23:44:59.772Z,30.50
2018-04-10T23:47:03.339Z,30.97
2018-04-10T23:49:06.934Z,32.57
2018-04-10T23:51:10.479Z,34.10
2018-04-10T23:53:14.800Z,33.03
2018-04-10T23:55:19.195Z,33.80
2018-04-10T23:57:22.779Z,34.47
2018-04-10T23:59:26.310Z,33.43
